Time;durP1;ratioP1;P1;durP2;ratioP2;P2;SDS_P1;SDS_P2;PMS_P1;PMS_P2;Temp;Humidity;BMP_temperature;BMP_pressure;BME280_temperature;BME280_humidity;BME280_pressure;Samples;Min_cycle;Max_cycle;Signal;HPM_P1;HPM_P2
2022/08/31 00:04:02;;;;;;;5.53;4.80;;;19.80;99.90;;;;;;4981147;28;20293;-77
2022/08/31 00:06:30;;;;;;;5.73;5.23;;;19.80;99.90;;;;;;4983920;28;20207;-77
2022/08/31 00:08:58;;;;;;;5.37;4.33;;;19.70;99.90;;;;;;4982735;28;20202;-78
2022/08/31 00:11:29;;;;;;;4.93;3.93;;;19.70;99.90;;;;;;4983475;28;20209;-78
2022/08/31 00:13:57;;;;;;;6.50;5.30;;;19.70;99.90;;;;;;4982413;28;20198;-77
2022/08/31 00:16:25;;;;;;;5.37;4.87;;;19.60;99.90;;;;;;4976976;28;20260;-77
2022/08/31 00:18:52;;;;;;;6.47;5.87;;;19.60;99.90;;;;;;4982464;28;20201;-78
2022/08/31 00:21:22;;;;;;;6.83;6.03;;;19.50;99.90;;;;;;4983022;28;20289;-77
2022/08/31 00:23:50;;;;;;;6.67;5.90;;;19.50;99.90;;;;;;4979350;28;20216;-78
2022/08/31 00:26:17;;;;;;;6.57;5.97;;;19.40;99.90;;;;;;4983198;28;20246;-77
2022/08/31 00:28:45;;;;;;;6.23;5.00;;;19.40;99.90;;;;;;4981736;28;20663;-77
2022/08/31 00:31:12;;;;;;;5.47;4.87;;;19.40;99.90;;;;;;4982949;28;20225;-78
2022/08/31 00:33:39;;;;;;;5.87;5.07;;;19.30;99.90;;;;;;4980402;28;20216;-78
2022/08/31 00:36:09;;;;;;;6.03;5.43;;;19.30;99.90;;;;;;4973408;28;20216;-78
2022/08/31 00:38:37;;;;;;;5.40;4.90;;;19.30;99.90;;;;;;4977389;28;20208;-78
2022/08/31 00:41:04;;;;;;;6.13;5.40;;;19.30;99.90;;;;;;4981045;28;20219;-77
2022/08/31 00:43:37;;;;;;;5.87;5.27;;;19.30;99.90;;;;;;4977184;28;20208;-77
2022/08/31 00:46:05;;;;;;;7.07;5.93;;;19.30;99.90;;;;;;4981520;28;20204;-78
2022/08/31 00:48:32;;;;;;;6.40;5.30;;;19.30;99.90;;;;;;4981076;28;20204;-77
2022/08/31 00:50:59;;;;;;;10.00;9.00;;;19.20;99.90;;;;;;4980859;28;20221;-78
2022/08/31 00:53:26;;;;;;;10.13;9.27;;;19.20;99.90;;;;;;4980640;28;20255;-77
2022/08/31 00:55:54;;;;;;;10.10;9.30;;;19.20;99.90;;;;;;4975827;28;20208;-77
2022/08/31 00:58:22;;;;;;;10.80;9.90;;;19.20;99.90;;;;;;4980612;28;20667;-77
2022/08/31 01:00:49;;;;;;;9.97;9.17;;;19.20;99.90;;;;;;4975216;28;20287;-77
2022/08/31 01:03:17;;;;;;;10.17;9.43;;;19.20;99.90;;;;;;4976358;28;20256;-77
2022/08/31 01:05:44;;;;;;;10.07;9.23;;;19.20;99.90;;;;;;4978558;28;20669;-78
2022/08/31 01:08:11;;;;;;;11.30;10.30;;;19.20;99.90;;;;;;4980939;28;20204;-77
2022/08/31 01:10:42;;;;;;;11.37;10.17;;;19.30;99.90;;;;;;4981682;28;20215;-77
2022/08/31 01:13:12;;;;;;;11.03;9.87;;;19.30;99.90;;;;;;4978448;28;20210;-77
2022/08/31 01:15:41;;;;;;;12.33;11.10;;;19.20;99.90;;;;;;4981253;28;20227;-77
2022/08/31 01:18:08;;;;;;;11.70;10.60;;;19.10;99.90;;;;;;4980770;28;20620;-78
2022/08/31 01:20:47;;;;;;;11.93;10.73;;;19.10;99.90;;;;;;4980745;28;20232;-78
2022/08/31 01:23:20;;;;;;;11.47;10.40;;;19.00;99.90;;;;;;4988355;28;20532;-77
2022/08/31 01:25:48;;;;;;;11.90;10.80;;;19.00;99.90;;;;;;4981398;28;20670;-78
2022/08/31 01:28:16;;;;;;;10.70;9.80;;;18.90;99.90;;;;;;4980436;28;20677;-77
2022/08/31 01:30:44;;;;;;;11.50;10.50;;;18.90;99.90;;;;;;4979420;28;20248;-78
2022/08/31 01:33:12;;;;;;;11.10;10.00;;;18.80;99.90;;;;;;4977076;28;20613;-77
2022/08/31 01:35:43;;;;;;;10.27;9.33;;;18.70;99.90;;;;;;4980120;28;20232;-77
2022/08/31 01:38:12;;;;;;;10.43;9.53;;;18.60;99.90;;;;;;4971344;28;20581;-77
2022/08/31 01:40:46;;;;;;;9.97;9.07;;;18.50;99.90;;;;;;4972048;28;20717;-77
2022/08/31 01:43:13;;;;;;;10.63;9.73;;;18.50;99.90;;;;;;4987791;28;20561;-78
2022/08/31 01:45:41;;;;;;;10.80;9.90;;;18.50;99.90;;;;;;4974451;28;20205;-78
2022/08/31 01:48:09;;;;;;;9.77;8.87;;;18.40;99.90;;;;;;4977863;28;20286;-77
2022/08/31 01:50:36;;;;;;;10.80;9.70;;;18.40;99.90;;;;;;4976529;28;20216;-78
2022/08/31 01:53:03;;;;;;;8.83;7.30;;;18.30;99.90;;;;;;4979891;28;20199;-77
2022/08/31 01:55:30;;;;;;;9.40;8.37;;;18.40;99.90;;;;;;4970923;28;20565;-78
2022/08/31 01:57:58;;;;;;;11.33;6.97;;;18.30;99.90;;;;;;4977357;28;20290;-78
2022/08/31 02:00:51;;;;;;;10.43;9.43;;;18.20;99.90;;;;;;4967537;28;20242;-78
2022/08/31 02:03:18;;;;;;;10.80;9.80;;;18.10;99.90;;;;;;4977540;28;20192;-77
2022/08/31 02:05:45;;;;;;;14.27;10.67;;;17.90;99.90;;;;;;4977688;28;20600;-78
2022/08/31 02:08:12;;;;;;;12.40;11.10;;;17.80;99.90;;;;;;4973494;28;20202;-78
2022/08/31 02:10:39;;;;;;;12.63;11.43;;;17.80;99.90;;;;;;4976433;28;20242;-77
2022/08/31 02:13:07;;;;;;;14.50;12.17;;;17.70;99.90;;;;;;4975982;28;20207;-77
2022/08/31 02:15:38;;;;;;;17.27;12.43;;;17.60;99.90;;;;;;4971824;28;20694;-78
2022/08/31 02:18:05;;;;;;;14.87;12.80;;;17.50;99.90;;;;;;4977508;28;20207;-77
2022/08/31 02:20:32;;;;;;;13.07;11.87;;;17.50;99.90;;;;;;4977444;28;20280;-78
2022/08/31 02:23:02;;;;;;;13.80;12.23;;;17.50;99.90;;;;;;4970620;28;20221;-78
2022/08/31 02:25:29;;;;;;;12.67;11.57;;;17.50;99.90;;;;;;4976973;28;20194;-78
2022/08/31 02:27:56;;;;;;;13.83;12.57;;;17.50;99.90;;;;;;4976987;28;20195;-78
2022/08/31 02:30:24;;;;;;;14.83;13.43;;;17.50;99.90;;;;;;4972321;28;20231;-78
2022/08/31 02:32:51;;;;;;;14.37;13.03;;;17.40;99.90;;;;;;4977070;28;20284;-78
2022/08/31 02:35:18;;;;;;;16.50;14.07;;;17.40;99.90;;;;;;4975233;28;20256;-77
2022/08/31 02:37:45;;;;;;;16.43;14.30;;;17.50;99.90;;;;;;4975628;28;20643;-77
2022/08/31 02:40:12;;;;;;;13.83;12.37;;;17.50;99.90;;;;;;4976443;28;20218;-77
2022/08/31 02:42:41;;;;;;;14.50;13.10;;;17.40;99.90;;;;;;4975417;28;20205;-77
2022/08/31 02:45:09;;;;;;;15.20;13.80;;;17.40;99.90;;;;;;4968953;28;20232;-78
2022/08/31 02:47:39;;;;;;;13.37;12.13;;;17.40;99.90;;;;;;4969102;28;20203;-77
2022/08/31 02:50:13;;;;;;;14.57;13.27;;;17.40;99.90;;;;;;4967662;28;20201;-77
2022/08/31 02:52:41;;;;;;;14.57;13.17;;;17.40;99.90;;;;;;4971499;28;20238;-78
2022/08/31 02:55:09;;;;;;;13.37;12.27;;;17.40;99.90;;;;;;4975526;28;20545;-78
2022/08/31 02:57:35;;;;;;;14.07;12.73;;;17.40;99.90;;;;;;4975389;28;20217;-78
2022/08/31 03:00:04;;;;;;;14.83;13.53;;;17.40;99.90;;;;;;4974934;28;20764;-78
2022/08/31 03:02:31;;;;;;;13.80;12.50;;;17.30;99.90;;;;;;4974907;28;20194;-78
2022/08/31 03:05:01;;;;;;;14.00;12.87;;;17.30;99.90;;;;;;4972595;28;20681;-78
2022/08/31 03:07:28;;;;;;;13.60;12.40;;;17.40;99.90;;;;;;4976644;28;20233;-77
2022/08/31 03:09:56;;;;;;;13.60;12.30;;;17.30;99.90;;;;;;4972606;28;20231;-78
2022/08/31 03:12:24;;;;;;;14.63;13.33;;;17.30;99.90;;;;;;4978031;28;20213;-77
2022/08/31 03:14:51;;;;;;;14.97;13.57;;;17.30;99.90;;;;;;4968754;28;20209;-76
2022/08/31 03:17:17;;;;;;;14.40;13.03;;;17.30;99.90;;;;;;4971779;28;20197;-76
2022/08/31 03:19:44;;;;;;;14.20;12.90;;;17.30;99.90;;;;;;4973034;28;20275;-77
2022/08/31 03:22:13;;;;;;;15.17;13.80;;;17.40;99.90;;;;;;4972253;28;20245;-76
2022/08/31 03:24:40;;;;;;;12.97;11.87;;;17.40;99.90;;;;;;4962306;28;20219;-77
2022/08/31 03:27:07;;;;;;;10.50;9.40;;;17.40;99.90;;;;;;4962839;28;20316;-76
2022/08/31 03:29:35;;;;;;;12.10;10.30;;;17.40;99.90;;;;;;4969108;28;20222;-76
2022/08/31 03:32:15;;;;;;;11.60;10.40;;;17.40;99.90;;;;;;4971530;28;20225;-77
2022/08/31 03:34:44;;;;;;;11.93;10.83;;;17.30;99.90;;;;;;4971128;28;20212;-76
2022/08/31 03:37:12;;;;;;;12.27;10.30;;;17.30;99.90;;;;;;4969815;28;20228;-76
2022/08/31 03:39:40;;;;;;;11.40;9.77;;;17.30;99.90;;;;;;4969208;28;20217;-76
2022/08/31 03:42:07;;;;;;;12.17;10.40;;;17.30;99.90;;;;;;4970851;28;20241;-77
2022/08/31 03:44:34;;;;;;;12.20;9.60;;;17.30;99.90;;;;;;4968338;28;20197;-77
2022/08/31 03:47:01;;;;;;;12.27;11.07;;;17.20;99.90;;;;;;4968596;28;20248;-77
2022/08/31 03:49:28;;;;;;;13.97;12.40;;;17.20;99.90;;;;;;4971611;28;20257;-77
2022/08/31 03:52:08;;;;;;;13.00;11.60;;;17.20;99.90;;;;;;4971217;28;20194;-77
2022/08/31 03:54:44;;;;;;;13.87;12.07;;;17.20;99.90;;;;;;4971372;28;20200;-77
2022/08/31 03:57:12;;;;;;;14.17;12.47;;;17.30;99.90;;;;;;4970198;28;20202;-76
2022/08/31 03:59:39;;;;;;;13.07;11.87;;;17.30;99.90;;;;;;4970911;28;20229;-78
2022/08/31 04:02:26;;;;;;;13.73;11.80;;;17.30;99.90;;;;;;4965672;28;20293;-77
2022/08/31 04:05:12;;;;;;;13.50;12.13;;;17.30;99.90;;;;;;4966607;28;20626;-77
2022/08/31 04:07:42;;;;;;;13.60;12.20;;;17.20;99.90;;;;;;4974953;28;20206;-76
2022/08/31 04:10:28;;;;;;;13.57;12.27;;;17.20;99.90;;;;;;4968102;28;20596;-76
2022/08/31 04:13:19;;;;;;;17.20;12.53;;;17.20;99.90;;;;;;4959094;28;20293;-77
2022/08/31 04:16:07;;;;;;;13.10;11.80;;;17.20;99.90;;;;;;4968337;28;20282;-77
2022/08/31 04:18:47;;;;;;;13.03;11.80;;;17.20;99.90;;;;;;4972802;28;20202;-77
2022/08/31 04:21:16;;;;;;;13.07;11.70;;;17.20;99.90;;;;;;4968707;28;20226;-76
2022/08/31 04:23:44;;;;;;;12.93;11.63;;;17.20;99.90;;;;;;4969890;28;20317;-77
2022/08/31 04:26:17;;;;;;;12.87;11.60;;;17.20;99.90;;;;;;4975190;28;20253;-76
2022/08/31 04:28:45;;;;;;;16.80;12.40;;;17.20;99.90;;;;;;4971923;28;20198;-77
2022/08/31 04:31:12;;;;;;;14.10;12.63;;;17.20;99.90;;;;;;4972097;28;20276;-77
2022/08/31 04:33:40;;;;;;;13.67;12.27;;;17.10;99.90;;;;;;4971932;28;20671;-77
2022/08/31 04:36:08;;;;;;;13.93;12.43;;;17.10;99.90;;;;;;4965886;28;20209;-74
2022/08/31 04:38:35;;;;;;;13.87;12.47;;;17.20;99.90;;;;;;4971369;28;20205;-74
2022/08/31 04:41:06;;;;;;;13.53;12.30;;;17.10;99.90;;;;;;4974118;28;20246;-75
2022/08/31 04:43:35;;;;;;;13.70;12.40;;;17.10;99.90;;;;;;4973761;28;20682;-74
2022/08/31 04:46:02;;;;;;;14.27;12.77;;;17.10;99.90;;;;;;4974159;28;20209;-75
2022/08/31 04:48:29;;;;;;;15.57;13.93;;;17.00;99.90;;;;;;4969738;28;20666;-75
2022/08/31 04:51:01;;;;;;;13.83;12.53;;;17.10;99.90;;;;;;4973910;28;20227;-75
2022/08/31 04:53:28;;;;;;;13.17;11.87;;;17.10;99.90;;;;;;4973944;28;20201;-75
2022/08/31 04:55:55;;;;;;;13.80;12.50;;;17.10;99.90;;;;;;4966914;28;20206;-75
2022/08/31 04:58:22;;;;;;;14.10;12.80;;;17.10;99.90;;;;;;4970571;28;20209;-75
2022/08/31 05:00:52;;;;;;;14.87;13.17;;;17.10;99.90;;;;;;4969703;28;20226;-74
2022/08/31 05:03:49;;;;;;;15.00;13.60;;;17.10;99.90;;;;;;4974776;28;20566;-74
2022/08/31 05:06:17;;;;;;;14.37;12.97;;;17.10;99.90;;;;;;4970568;28;20203;-77
2022/08/31 05:08:45;;;;;;;13.03;11.77;;;17.10;99.90;;;;;;4971954;28;20205;-79
2022/08/31 05:11:13;;;;;;;13.10;11.80;;;17.00;99.90;;;;;;4976125;28;20214;-76
2022/08/31 05:13:40;;;;;;;14.23;12.53;;;17.00;99.90;;;;;;4973591;28;20198;-76
2022/08/31 05:16:10;;;;;;;13.10;11.90;;;17.10;99.90;;;;;;4976839;28;20202;-77
2022/08/31 05:18:38;;;;;;;14.00;12.60;;;17.10;99.90;;;;;;4979559;28;20198;-76
2022/08/31 05:21:09;;;;;;;14.43;13.13;;;17.10;99.90;;;;;;4971598;28;20237;-77
2022/08/31 05:23:37;;;;;;;16.67;13.80;;;17.10;99.90;;;;;;4971474;28;20206;-77
2022/08/31 05:26:04;;;;;;;15.77;14.17;;;17.20;99.90;;;;;;4977811;28;20208;-77
2022/08/31 05:28:32;;;;;;;15.53;14.00;;;17.10;99.90;;;;;;4975909;28;20674;-76
2022/08/31 05:30:59;;;;;;;14.57;13.17;;;17.10;99.90;;;;;;4974458;28;20317;-78
2022/08/31 05:33:45;;;;;;;14.60;13.30;;;17.20;99.90;;;;;;4964994;28;20674;-77
2022/08/31 05:36:14;;;;;;;15.00;13.53;;;17.10;99.90;;;;;;4974496;28;20217;-76
2022/08/31 05:38:41;;;;;;;13.17;12.00;;;17.10;99.90;;;;;;4970538;28;20726;-77
2022/08/31 05:41:09;;;;;;;14.13;12.77;;;17.10;99.90;;;;;;4966933;28;20232;-77
2022/08/31 05:43:37;;;;;;;12.67;11.57;;;17.10;99.90;;;;;;4974656;28;20301;-77
2022/08/31 05:46:06;;;;;;;13.40;12.23;;;17.00;99.90;;;;;;4968882;28;20201;-76
2022/08/31 05:48:35;;;;;;;12.63;11.37;;;17.00;99.90;;;;;;4972376;28;20209;-78
2022/08/31 05:51:05;;;;;;;12.10;11.10;;;17.00;99.90;;;;;;4974456;28;20816;-77
2022/08/31 05:53:32;;;;;;;11.90;10.97;;;16.90;99.90;;;;;;4973148;28;20645;-77
2022/08/31 05:56:02;;;;;;;12.33;11.07;;;16.90;99.90;;;;;;4973981;28;20263;-76
2022/08/31 05:58:30;;;;;;;12.47;11.37;;;16.80;99.90;;;;;;4972114;28;20201;-77
2022/08/31 06:00:57;;;;;;;14.57;13.40;;;16.80;99.90;;;;;;4973899;28;20222;-77
2022/08/31 06:03:44;;;;;;;12.77;11.77;;;16.80;99.90;;;;;;4975436;28;20660;-75
2022/08/31 06:06:13;;;;;;;14.67;13.50;;;16.80;99.90;;;;;;4969464;28;20210;-77
2022/08/31 06:08:41;;;;;;;13.07;12.07;;;16.80;99.90;;;;;;4974011;28;20208;-76
2022/08/31 06:11:18;;;;;;;15.27;14.07;;;16.80;99.90;;;;;;4971889;28;20218;-77
2022/08/31 06:13:46;;;;;;;14.97;13.87;;;16.90;99.90;;;;;;4974692;28;20205;-78
2022/08/31 06:16:13;;;;;;;14.82;13.57;;;16.90;99.90;;;;;;4975822;28;20442;-79
2022/08/31 06:18:48;;;;;;;14.17;13.17;;;16.90;99.90;;;;;;4971387;28;20236;-78
2022/08/31 06:21:19;;;;;;;9.07;8.00;;;16.90;99.90;;;;;;4966129;28;20452;-78
2022/08/31 06:23:48;;;;;;;9.00;8.10;;;16.80;99.90;;;;;;4958992;28;20206;-78
2022/08/31 06:26:18;;;;;;;9.33;8.43;;;16.90;99.90;;;;;;4956819;28;20288;-78
2022/08/31 06:28:47;;;;;;;9.60;8.70;;;16.90;99.90;;;;;;4971738;28;20585;-78
2022/08/31 06:31:17;;;;;;;9.27;8.37;;;16.90;99.90;;;;;;4969862;28;20317;-78
2022/08/31 06:33:44;;;;;;;9.93;8.93;;;16.90;99.90;;;;;;4957852;28;20724;-79
2022/08/31 06:36:20;;;;;;;10.70;9.70;;;16.90;99.90;;;;;;4969548;28;20230;-79
2022/08/31 06:38:58;;;;;;;10.30;9.30;;;16.90;99.90;;;;;;4974113;28;20225;-78
2022/08/31 06:41:47;;;;;;;10.10;9.20;;;16.90;99.90;;;;;;4970027;28;20210;-78
2022/08/31 06:44:26;;;;;;;10.80;9.80;;;16.90;99.90;;;;;;4974274;28;20209;-79
2022/08/31 07:12:33;;;;;;;;;;;;;;;;;;;;;
2022/08/31 07:15:13;;;;;;;10.33;9.00;;;17.10;99.90;;;;;;4875579;29;20712;-81
2022/08/31 07:17:46;;;;;;;10.40;9.40;;;17.10;99.90;;;;;;4911458;29;20362;-81
2022/08/31 07:20:14;;;;;;;10.03;9.13;;;17.10;99.90;;;;;;4908507;29;20721;-79
2022/08/31 07:22:42;;;;;;;11.07;9.97;;;17.10;99.90;;;;;;4957640;28;20304;-78
2022/08/31 07:25:28;;;;;;;11.47;10.23;;;17.10;99.90;;;;;;4971375;28;20209;-82
2022/08/31 07:27:55;;;;;;;11.77;9.53;;;17.10;99.90;;;;;;4980712;28;20229;-80
2022/08/31 07:30:22;;;;;;;9.63;8.73;;;17.10;99.90;;;;;;4980491;28;20197;-79
2022/08/31 07:32:51;;;;;;;9.80;8.90;;;17.10;99.90;;;;;;4982007;28;20214;-80
2022/08/31 07:35:19;;;;;;;12.70;10.17;;;17.10;99.90;;;;;;4966296;28;20203;-81
2022/08/31 07:43:26;;;;;;;9.67;8.77;;;17.10;99.90;;;;;;4978654;28;20309;-81
2022/08/31 07:45:53;;;;;;;9.27;8.37;;;17.10;99.90;;;;;;4981494;28;20208;-79
2022/08/31 07:48:26;;;;;;;9.33;8.43;;;17.10;99.90;;;;;;4969612;28;20264;-84
2022/08/31 07:51:22;;;;;;;9.10;8.30;;;17.10;99.90;;;;;;4967261;28;20620;-82
2022/08/31 07:54:19;;;;;;;9.47;8.57;;;17.10;99.90;;;;;;4976963;28;20194;-80
2022/08/31 07:57:14;;;;;;;9.60;8.70;;;17.10;99.90;;;;;;4971338;28;20687;-80
2022/08/31 07:59:42;;;;;;;9.33;8.43;;;17.10;99.90;;;;;;4978424;28;20206;-82
2022/08/31 08:02:09;;;;;;;8.67;7.87;;;17.10;99.90;;;;;;4974504;28;20238;-81
2022/08/31 08:04:39;;;;;;;10.53;9.43;;;17.20;99.90;;;;;;4979989;28;20229;-80
2022/08/31 08:07:25;;;;;;;8.30;7.60;;;17.30;99.90;;;;;;4978973;28;20277;-81
2022/08/31 08:10:12;;;;;;;8.30;7.50;;;17.40;99.90;;;;;;4969518;28;20645;-77
2022/08/31 08:13:06;;;;;;;13.97;12.97;;;17.40;99.90;;;;;;4963591;28;20213;-78
2022/08/31 08:15:50;;;;;;;8.93;8.03;;;17.40;99.90;;;;;;4975533;28;20297;-79
2022/08/31 08:18:27;;;;;;;9.02;8.20;;;17.40;99.90;;;;;;4973101;28;20450;-79
2022/08/31 08:20:59;;;;;;;11.77;10.77;;;17.50;99.90;;;;;;4975860;28;20640;-79
2022/08/31 08:23:27;;;;;;;15.63;14.47;;;17.50;99.90;;;;;;4969758;28;20615;-78
2022/08/31 08:26:13;;;;;;;10.17;9.27;;;17.60;99.90;;;;;;4969845;28;20357;-78
2022/08/31 08:29:04;;;;;;;16.30;15.10;;;17.60;99.90;;;;;;4965864;28;20245;-77
2022/08/31 08:31:32;;;;;;;16.27;14.97;;;17.50;99.90;;;;;;4975886;28;20680;-77
2022/08/31 08:33:59;;;;;;;15.53;14.33;;;17.40;99.90;;;;;;4974765;28;20591;-78
2022/08/31 08:36:27;;;;;;;15.90;14.73;;;17.40;99.90;;;;;;4974238;28;20450;-83
2022/08/31 08:38:56;;;;;;;13.37;12.37;;;17.40;99.90;;;;;;4975940;28;20206;-82
2022/08/31 08:41:28;;;;;;;15.23;14.23;;;17.40;99.90;;;;;;4975431;28;20205;-81
2022/08/31 08:43:57;;;;;;;15.23;14.13;;;17.40;99.90;;;;;;4976580;28;20673;-80
2022/08/31 08:46:30;;;;;;;9.10;8.30;;;17.50;99.90;;;;;;4976073;28;20234;-78
2022/08/31 08:49:00;;;;;;;12.40;11.47;;;17.60;99.90;;;;;;4977666;28;20288;-79
2022/08/31 08:51:35;;;;;;;9.20;8.40;;;17.70;99.90;;;;;;4972622;28;20202;-78
2022/08/31 08:54:10;;;;;;;11.13;8.47;;;17.80;99.90;;;;;;4975566;28;20202;-77
2022/08/31 08:56:45;;;;;;;15.17;13.93;;;17.70;99.90;;;;;;4972628;28;20248;-76
2022/08/31 08:59:14;;;;;;;16.13;14.90;;;17.70;99.90;;;;;;4968649;28;20206;-79
2022/08/31 09:01:45;;;;;;;14.03;13.03;;;17.70;99.90;;;;;;4977687;28;20579;-79
2022/08/31 09:04:25;;;;;;;15.20;14.10;;;17.80;99.90;;;;;;4976039;28;20202;-81
2022/08/31 09:07:12;;;;;;;15.15;14.13;;;17.80;99.90;;;;;;4974382;28;20442;-79
2022/08/31 09:09:47;;;;;;;10.57;9.77;;;18.00;99.90;;;;;;4975236;28;20218;-78
2022/08/31 09:12:34;;;;;;;9.83;9.03;;;18.10;99.90;;;;;;4966910;28;20288;-79
2022/08/31 09:15:26;;;;;;;16.10;14.90;;;18.30;99.90;;;;;;4976729;28;20200;-79
2022/08/31 09:18:03;;;;;;;16.33;15.03;;;18.40;99.90;;;;;;4972717;28;20239;-81
2022/08/31 09:20:32;;;;;;;15.33;14.23;;;18.40;99.90;;;;;;4973028;28;20274;-79
2022/08/31 09:23:06;;;;;;;15.13;14.03;;;18.30;99.90;;;;;;4974513;28;20663;-78
2022/08/31 09:25:44;;;;;;;15.40;14.30;;;18.50;99.90;;;;;;4972723;28;20293;-80
2022/08/31 09:28:34;;;;;;;14.87;13.87;;;18.70;99.90;;;;;;4970221;28;20632;-81
2022/08/31 09:31:01;;;;;;;14.63;13.53;;;18.80;99.90;;;;;;4975932;28;20209;-79
2022/08/31 09:33:34;;;;;;;13.00;11.90;;;18.90;99.90;;;;;;4972333;28;20198;-81
2022/08/31 09:36:21;;;;;;;15.97;14.77;;;19.10;99.90;;;;;;4975695;28;20677;-79
2022/08/31 09:38:50;;;;;;;16.13;14.83;;;19.40;99.90;;;;;;4980529;28;20225;-77
2022/08/31 09:41:31;;;;;;;10.47;9.57;;;19.40;99.90;;;;;;4975426;28;20227;-81
2022/08/31 09:44:30;;;;;;;15.20;14.10;;;19.50;99.90;;;;;;4978306;28;20252;-77
2022/08/31 09:47:00;;;;;;;13.90;12.95;;;19.50;99.90;;;;;;4971677;28;20943;-80
2022/08/31 09:49:29;;;;;;;9.30;8.47;;;19.70;99.90;;;;;;4978698;28;20202;-78
2022/08/31 09:55:11;;;;;;;9.17;8.37;;;19.70;99.90;;;;;;4977380;28;20235;-78
2022/08/31 09:55:13;;;;;;;8.77;8.07;;;19.90;99.90;;;;;;4975942;28;20438;-77
2022/08/31 09:57:51;;;;;;;8.73;7.97;;;19.80;99.90;;;;;;4977868;28;20214;-78
2022/08/31 10:00:27;;;;;;;9.73;8.13;;;19.90;99.90;;;;;;4971965;28;20197;-77
2022/08/31 10:02:58;;;;;;;14.10;13.10;;;20.10;99.90;;;;;;4975156;28;20232;-78
2022/08/31 10:05:39;;;;;;;13.00;12.10;;;20.20;99.90;;;;;;4977326;28;20198;-78
2022/08/31 10:08:26;;;;;;;13.80;12.90;;;20.40;99.90;;;;;;4977464;28;20214;-78
2022/08/31 10:10:57;;;;;;;10.57;9.77;;;20.60;99.90;;;;;;4976296;28;20606;-78
2022/08/31 10:13:33;;;;;;;8.73;7.93;;;20.70;99.90;;;;;;4978288;28;20225;-77
2022/08/31 10:16:05;;;;;;;9.27;8.37;;;20.50;99.90;;;;;;4974542;28;20248;-78
2022/08/31 10:18:38;;;;;;;8.37;7.60;;;20.20;99.90;;;;;;4973940;28;20407;-79
2022/08/31 10:21:19;;;;;;;10.50;9.70;;;20.40;99.90;;;;;;4973628;28;20276;-78
2022/08/31 10:23:55;;;;;;;9.00;8.30;;;20.50;99.90;;;;;;4972611;28;20711;-78
2022/08/31 10:26:34;;;;;;;12.10;11.07;;;20.70;99.90;;;;;;4975268;28;20216;-78
2022/08/31 10:29:07;;;;;;;13.82;12.93;;;20.80;99.90;;;;;;4973494;28;20979;-78
2022/08/31 10:31:44;;;;;;;13.03;12.03;;;20.70;99.90;;;;;;4973615;28;20578;-78
2022/08/31 10:37:06;;;;;;;8.60;7.90;;;20.80;99.90;;;;;;4967728;28;20436;-78
2022/08/31 10:39:38;;;;;;;14.70;13.57;;;21.00;99.90;;;;;;4968751;28;20322;-79
2022/08/31 10:42:11;;;;;;;13.23;12.23;;;21.00;99.90;;;;;;4974148;28;20434;-78
2022/08/31 10:44:51;;;;;;;13.47;12.47;;;21.00;99.90;;;;;;4969808;28;20249;-78
2022/08/31 10:47:18;;;;;;;13.93;12.73;;;21.10;99.90;;;;;;4968614;28;20280;-78
2022/08/31 10:49:45;;;;;;;14.40;13.33;;;20.80;99.90;;;;;;4973303;28;20208;-79
2022/08/31 10:52:17;;;;;;;12.73;11.80;;;21.00;99.90;;;;;;4972925;28;20206;-78
2022/08/31 10:54:50;;;;;;;9.63;8.73;;;21.50;99.90;;;;;;4971032;28;20240;-78
2022/08/31 10:57:30;;;;;;;11.17;10.27;;;21.50;99.90;;;;;;4967611;28;20230;-78
2022/08/31 11:00:06;;;;;;;6.97;6.27;;;21.60;99.90;;;;;;4965823;28;20213;-78
2022/08/31 11:02:42;;;;;;;13.40;12.30;;;21.50;99.90;;;;;;4973622;28;20194;-78
2022/08/31 11:05:34;;;;;;;11.80;10.90;;;21.50;99.90;;;;;;4974753;28;20197;-80
2022/08/31 11:08:18;;;;;;;13.93;12.90;;;21.60;99.90;;;;;;4961901;28;20219;-77
2022/08/31 11:10:50;;;;;;;12.83;11.93;;;21.50;99.90;;;;;;4966104;28;20631;-76
2022/08/31 11:13:38;;;;;;;6.83;6.13;;;21.50;99.90;;;;;;4966633;28;20198;-78
2022/08/31 11:16:38;;;;;;;11.70;10.73;;;21.80;99.90;;;;;;4958993;28;20498;-78
2022/08/31 11:19:25;;;;;;;7.47;6.77;;;21.80;99.90;;;;;;4972624;28;20624;-78
2022/08/31 11:22:15;;;;;;;11.00;10.13;;;21.60;99.90;;;;;;4969774;28;20212;-78
2022/08/31 11:25:07;;;;;;;8.33;7.03;;;21.50;99.90;;;;;;4969942;28;20718;-78
2022/08/31 11:27:36;;;;;;;8.60;6.40;;;21.40;99.90;;;;;;4967875;28;20315;-77
2022/08/31 11:30:11;;;;;;;7.83;7.03;;;21.20;99.90;;;;;;4974101;28;20663;-78
2022/08/31 11:32:44;;;;;;;11.33;10.33;;;21.00;99.90;;;;;;4974024;28;20256;-78
2022/08/31 11:35:14;;;;;;;10.73;9.80;;;20.90;99.90;;;;;;4971098;28;20209;-78
2022/08/31 11:37:55;;;;;;;11.13;10.13;;;20.80;99.90;;;;;;4968405;28;20285;-78
2022/08/31 11:41:10;;;;;;;12.33;11.43;;;20.70;99.90;;;;;;4968437;28;20212;-78
2022/08/31 11:43:50;;;;;;;7.33;6.57;;;20.80;99.90;;;;;;4964644;28;20268;-79
2022/08/31 11:46:56;;;;;;;7.57;6.80;;;20.80;99.90;;;;;;4970961;28;20224;-78
2022/08/31 11:49:45;;;;;;;9.40;7.47;;;20.80;99.90;;;;;;4978953;28;20568;-77
2022/08/31 11:52:28;;;;;;;10.80;7.37;;;20.80;99.90;;;;;;4972233;28;20221;-77
2022/08/31 11:55:10;;;;;;;6.90;6.20;;;20.70;99.90;;;;;;4977216;28;20202;-78
2022/08/31 11:58:16;;;;;;;11.27;7.37;;;20.70;99.90;;;;;;4979082;28;20226;-78
2022/08/31 12:00:52;;;;;;;8.87;7.40;;;20.80;99.90;;;;;;4972756;28;20209;-78
2022/08/31 12:03:41;;;;;;;8.87;7.97;;;21.00;99.90;;;;;;4978096;28;20289;-78
2022/08/31 12:06:32;;;;;;;7.43;6.73;;;21.10;99.90;;;;;;4965872;28;20229;-78
2022/08/31 12:09:18;;;;;;;14.10;13.10;;;21.50;99.90;;;;;;4979941;28;20198;-80
2022/08/31 12:11:51;;;;;;;9.37;7.23;;;21.80;99.90;;;;;;4976878;28;20268;-78
2022/08/31 12:14:28;;;;;;;13.03;11.87;;;22.10;99.90;;;;;;4981304;28;20198;-78
2022/08/31 12:17:08;;;;;;;12.90;11.80;;;22.50;99.90;;;;;;4980600;28;20221;-78
2022/08/31 12:19:59;;;;;;;9.47;7.60;;;22.50;99.90;;;;;;4983128;28;20729;-78
2022/08/31 12:25:43;;;;;;;7.80;6.83;;;22.10;99.90;;;;;;4975849;28;20194;-78
2022/08/31 12:28:18;;;;;;;7.37;6.67;;;22.10;99.90;;;;;;4972911;28;20244;-77
2022/08/31 12:30:50;;;;;;;7.50;6.70;;;22.20;99.90;;;;;;4977686;28;20256;-78
2022/08/31 12:33:19;;;;;;;8.03;7.23;;;22.40;99.90;;;;;;4975180;28;20286;-79
2022/08/31 12:35:48;;;;;;;13.63;12.53;;;22.30;99.90;;;;;;4964335;28;20730;-78
2022/08/31 12:38:19;;;;;;;8.80;8.00;;;22.60;99.90;;;;;;4976487;28;20222;-77
2022/08/31 12:40:50;;;;;;;12.07;10.90;;;22.70;99.90;;;;;;4975438;28;20257;-78
2022/08/31 12:43:20;;;;;;;9.53;7.73;;;22.70;99.90;;;;;;4976695;28;20264;-78
2022/08/31 12:46:10;;;;;;;15.73;14.43;;;22.70;99.90;;;;;;4973436;28;20212;-78
2022/08/31 12:49:09;;;;;;;12.20;8.10;;;22.50;99.90;;;;;;4996957;23;20241;-78
2022/08/31 12:51:42;;;;;;;13.90;12.40;;;22.50;99.90;;;;;;4963464;28;20214;-78
2022/08/31 12:54:26;;;;;;;9.07;8.17;;;22.70;99.90;;;;;;4972407;28;20197;-81
2022/08/31 12:57:03;;;;;;;13.90;12.70;;;23.00;99.90;;;;;;4969155;28;20202;-78
2022/08/31 12:59:36;;;;;;;10.17;8.87;;;23.20;99.90;;;;;;4950637;28;20242;-79
2022/08/31 13:02:04;;;;;;;15.57;14.07;;;23.40;99.90;;;;;;4957131;28;20198;-80
2022/08/31 13:04:31;;;;;;;13.73;12.33;;;23.20;99.90;;;;;;4956625;29;20270;-79
2022/08/31 13:07:13;;;;;;;13.30;12.13;;;23.20;99.90;;;;;;4956441;29;20215;-79
2022/08/31 13:09:41;;;;;;;9.70;8.70;;;23.10;99.90;;;;;;4958082;29;20190;-79
2022/08/31 13:12:09;;;;;;;12.73;11.60;;;22.90;99.90;;;;;;4957944;29;20203;-78
2022/08/31 13:14:45;;;;;;;14.80;13.60;;;23.20;99.90;;;;;;4957687;29;20266;-78
2022/08/31 13:17:14;;;;;;;12.50;11.37;;;23.10;99.90;;;;;;4949926;29;20198;-79
2022/08/31 13:19:48;;;;;;;12.57;11.57;;;22.90;99.90;;;;;;4956027;29;20251;-79
2022/08/31 13:22:27;;;;;;;12.93;11.70;;;22.90;99.90;;;;;;4947632;29;20651;-78
2022/08/31 13:24:56;;;;;;;13.93;12.73;;;23.00;99.90;;;;;;4954043;29;20695;-78
2022/08/31 13:27:29;;;;;;;10.17;8.83;;;22.70;99.90;;;;;;4954499;29;20317;-79
2022/08/31 13:30:10;;;;;;;12.80;11.50;;;22.60;99.90;;;;;;4955895;28;20198;-78
2022/08/31 13:32:39;;;;;;;9.17;8.37;;;22.40;99.90;;;;;;4956386;29;20202;-78
2022/08/31 13:35:09;;;;;;;9.80;8.80;;;22.50;99.90;;;;;;4952945;28;20222;-79
2022/08/31 13:37:40;;;;;;;9.70;8.70;;;22.40;99.90;;;;;;4966332;28;20241;-80
2022/08/31 13:40:10;;;;;;;10.17;9.03;;;22.30;99.90;;;;;;4954055;29;20211;-78
2022/08/31 13:42:42;;;;;;;11.43;10.33;;;22.10;99.90;;;;;;4947705;28;20202;-79
2022/08/31 13:45:28;;;;;;;11.10;10.03;;;21.90;99.90;;;;;;4952006;29;20599;-79
2022/08/31 13:47:57;;;;;;;11.60;10.40;;;21.80;99.90;;;;;;4953928;29;20245;-78